CheckWX is a tool to help pilots better visualize weather data.  It is not intended as a substitute for an official pre-flight weather briefing.

21:53:53 UTC

KADM METAR
Ardmore Municipal Airport
Ardmore, Oklahoma, USA
Current

59 mins ago

KADM 232055Z 24027G37KT 10SM CLR 19/M01 A2970
Observed
Feb-23 @ 20:55 UTC
Wind
  • 240° at 27 KTS
  • Gusting to 37 KTS
Visibility
10 SM
Flight Rules
VFR
Cloud Levels
  • Clear skies
Temperature
19°C / 66°F
Dewpoint
-1°C / 30°F
Humidity
26%
Altimeter
29.7" Hg
Pressure
1005.72 hPa
Previous

2 hours ago

KADM 231955Z 22026G37KT 10SM CLR 18/00 A2969
Observed
Feb-23 @ 19:55 UTC
Wind
  • 220° at 26 KTS
  • Gusting to 37 KTS
Visibility
10 SM
Flight Rules
VFR
Cloud Levels
  • Clear skies
Temperature
18°C / 64°F
Dewpoint
C / 32°F
Humidity
30%
Altimeter
29.69" Hg
Pressure
1005.42 hPa
Previous

3 hours ago

KADM 231855Z 22021G37KT 10SM CLR 18/00 A2971
Observed
Feb-23 @ 18:55 UTC
Wind
  • 220° at 21 KTS
  • Gusting to 37 KTS
Visibility
10 SM
Flight Rules
VFR
Cloud Levels
  • Clear skies
Temperature
18°C / 64°F
Dewpoint
C / 32°F
Humidity
30%
Altimeter
29.71" Hg
Pressure
1006.12 hPa